Time;durP1;ratioP1;P1;durP2;ratioP2;P2;SDS_P1;SDS_P2;PMS_P1;PMS_P2;Temp;Humidity;BMP_temperature;BMP_pressure;BME280_temperature;BME280_humidity;BME280_pressure;Samples;Min_cycle;Max_cycle;Signal;HPM_P1;HPM_P2
2022/12/21 00:01:41;;;;;;;33.58;11.90;;;8.30;99.90;;;;;;5055822;28;20041;-69
2022/12/21 00:04:09;;;;;;;26.95;12.05;;;8.20;99.90;;;;;;5055732;28;20124;-68
2022/12/21 00:06:36;;;;;;;31.73;13.43;;;8.40;99.90;;;;;;5055963;28;20045;-68
2022/12/21 00:09:05;;;;;;;29.40;13.10;;;8.10;99.90;;;;;;5056487;28;20063;-69
2022/12/21 00:11:31;;;;;;;28.30;12.25;;;8.30;99.90;;;;;;5055605;28;20546;-68
2022/12/21 00:13:59;;;;;;;30.83;12.45;;;8.30;99.90;;;;;;5055912;28;20068;-68
2022/12/21 00:16:28;;;;;;;30.23;13.63;;;8.40;99.90;;;;;;5055476;28;20385;-68
2022/12/21 00:18:55;;;;;;;33.95;14.30;;;8.20;99.90;;;;;;5055538;28;20041;-68
2022/12/21 00:21:23;;;;;;;26.42;11.57;;;8.40;99.90;;;;;;5055403;28;20049;-69
2022/12/21 00:23:52;;;;;;;29.98;12.98;;;8.30;99.90;;;;;;5055102;28;20047;-68
2022/12/21 00:26:21;;;;;;;39.92;14.30;;;8.20;99.90;;;;;;5055377;28;20051;-69
2022/12/21 00:28:49;;;;;;;29.45;11.98;;;8.20;99.90;;;;;;5056131;28;20053;-68
2022/12/21 00:31:21;;;;;;;30.00;13.07;;;8.20;99.90;;;;;;5055708;28;20044;-68
2022/12/21 00:33:47;;;;;;;37.08;14.32;;;8.10;99.90;;;;;;5054671;28;20037;-68
2022/12/21 00:36:15;;;;;;;35.00;14.57;;;8.00;99.90;;;;;;5055198;28;20052;-68
2022/12/21 00:38:41;;;;;;;29.92;14.77;;;8.00;99.90;;;;;;5055186;28;20049;-68
2022/12/21 00:41:11;;;;;;;28.63;13.02;;;7.90;99.90;;;;;;5055126;28;20053;-69
2022/12/21 00:43:39;;;;;;;30.75;14.43;;;7.90;99.90;;;;;;5055034;28;20045;-68
2022/12/21 00:46:06;;;;;;;36.65;13.98;;;8.00;99.90;;;;;;5053774;28;20044;-68
2022/12/21 00:48:34;;;;;;;36.90;15.40;;;7.70;99.90;;;;;;5055312;28;20048;-68
2022/12/21 00:51:09;;;;;;;36.50;14.70;;;7.80;99.90;;;;;;5037507;28;20094;-68
2022/12/21 00:53:36;;;;;;;27.67;12.57;;;7.90;99.90;;;;;;5054861;28;20057;-69
2022/12/21 00:56:04;;;;;;;34.83;13.88;;;7.70;99.90;;;;;;5037223;28;20451;-69
2022/12/21 00:58:30;;;;;;;43.28;14.52;;;7.70;99.90;;;;;;5054981;28;20095;-69
2022/12/21 01:00:58;;;;;;;31.33;13.55;;;7.70;99.90;;;;;;5053630;28;20064;-69
2022/12/21 01:03:25;;;;;;;31.75;12.77;;;7.70;99.90;;;;;;5054590;28;20077;-69
2022/12/21 01:05:52;;;;;;;38.72;14.75;;;7.60;99.90;;;;;;5054537;28;20045;-69
2022/12/21 01:08:20;;;;;;;30.90;13.02;;;7.60;99.90;;;;;;5055072;28;20049;-68
2022/12/21 01:10:46;;;;;;;38.05;14.98;;;7.70;99.90;;;;;;5053289;28;20049;-69
2022/12/21 01:13:12;;;;;;;33.03;12.52;;;7.60;99.90;;;;;;5053458;28;20056;-68
2022/12/21 01:15:45;;;;;;;53.30;14.20;;;7.70;99.90;;;;;;5054021;28;20048;-68
2022/12/21 01:18:13;;;;;;;110.50;16.02;;;7.60;99.90;;;;;;5054617;28;20098;-68
2022/12/21 01:20:40;;;;;;;104.85;16.02;;;7.50;99.90;;;;;;5054289;28;20048;-68
2022/12/21 01:23:06;;;;;;;113.05;16.20;;;7.60;99.90;;;;;;5052920;28;20053;-69
2022/12/21 01:25:32;;;;;;;84.00;14.95;;;7.50;99.90;;;;;;5054834;28;20052;-68
2022/12/21 01:27:58;;;;;;;98.55;15.05;;;7.70;99.90;;;;;;5053743;28;20049;-68
2022/12/21 01:30:23;;;;;;;70.40;14.02;;;7.40;99.90;;;;;;5054143;28;20049;-68
2022/12/21 01:32:49;;;;;;;78.35;14.48;;;7.40;99.90;;;;;;5054126;28;20131;-68
2022/12/21 01:35:15;;;;;;;43.70;12.05;;;7.40;99.90;;;;;;5052887;28;20045;-68
2022/12/21 01:37:41;;;;;;;195.93;22.67;;;7.20;99.90;;;;;;5053997;28;20041;-69
2022/12/21 01:40:07;;;;;;;113.40;17.30;;;7.20;99.90;;;;;;5054756;28;20045;-69
2022/12/21 01:42:33;;;;;;;160.93;20.17;;;7.10;99.90;;;;;;5054483;28;20134;-69
2022/12/21 01:45:22;;;;;;;97.03;18.48;;;7.00;99.90;;;;;;5053458;28;20103;-68
2022/12/21 01:47:57;;;;;;;122.70;19.27;;;7.00;99.90;;;;;;5053901;28;20126;-68
2022/12/21 01:50:32;;;;;;;84.10;15.38;;;7.00;99.90;;;;;;5053799;28;20057;-68
2022/12/21 01:53:05;;;;;;;68.28;13.25;;;7.20;99.90;;;;;;5054288;28;20464;-68
2022/12/21 01:55:33;;;;;;;81.03;14.75;;;7.40;99.90;;;;;;5053999;28;20093;-68
2022/12/21 01:58:02;;;;;;;158.50;21.58;;;7.30;99.90;;;;;;5052523;28;20055;-68
2022/12/21 02:00:28;;;;;;;91.72;15.27;;;7.10;99.90;;;;;;5053663;28;20048;-69
2022/12/21 02:02:58;;;;;;;126.63;16.38;;;7.30;99.90;;;;;;5053620;28;20045;-68
2022/12/21 02:05:33;;;;;;;121.15;17.88;;;7.40;99.90;;;;;;5053637;28;20128;-68
2022/12/21 02:08:01;;;;;;;89.22;16.33;;;7.20;99.90;;;;;;5053605;28;20053;-68
2022/12/21 02:10:27;;;;;;;83.43;15.32;;;7.10;99.90;;;;;;5053553;28;20048;-68
2022/12/21 02:13:05;;;;;;;159.07;20.80;;;7.30;99.90;;;;;;5053546;28;20037;-68
2022/12/21 02:15:56;;;;;;;65.07;13.52;;;7.40;99.90;;;;;;5053307;28;20372;-68
2022/12/21 02:18:53;;;;;;;74.05;15.20;;;7.40;99.90;;;;;;5053217;28;20552;-69
2022/12/21 02:21:26;;;;;;;50.13;12.73;;;7.30;99.90;;;;;;5053401;28;20110;-68
2022/12/21 02:24:16;;;;;;;85.90;15.77;;;7.30;99.90;;;;;;5053390;28;20049;-69
2022/12/21 02:26:55;;;;;;;71.00;14.55;;;7.30;99.90;;;;;;5053391;28;20041;-69
2022/12/21 02:29:40;;;;;;;74.35;13.60;;;7.40;99.90;;;;;;5053420;28;20045;-69
2022/12/21 02:32:23;;;;;;;70.25;12.93;;;7.50;99.90;;;;;;5053562;28;20049;-69
2022/12/21 02:35:07;;;;;;;58.35;14.30;;;7.20;99.90;;;;;;5053373;28;20053;-70
2022/12/21 02:37:37;;;;;;;46.15;12.05;;;7.40;99.90;;;;;;5054050;28;20045;-68
2022/12/21 02:40:17;;;;;;;32.45;11.15;;;7.70;99.90;;;;;;5052936;28;20566;-69
2022/12/21 02:46:14;;;;;;;42.92;11.98;;;7.40;99.90;;;;;;5053781;28;20095;-68
2022/12/21 02:48:48;;;;;;;65.10;12.45;;;7.30;99.90;;;;;;5053751;28;20052;-68
2022/12/21 02:51:22;;;;;;;32.95;10.30;;;7.40;99.90;;;;;;5053681;28;20053;-68
2022/12/21 02:53:49;;;;;;;48.90;10.77;;;7.40;99.90;;;;;;5053698;28;20408;-68
2022/12/21 02:56:17;;;;;;;37.75;11.32;;;7.50;99.90;;;;;;5054069;28;20041;-68
2022/12/21 02:58:43;;;;;;;53.65;12.25;;;7.30;99.90;;;;;;5057307;28;20116;-69
2022/12/21 03:01:17;;;;;;;49.97;12.27;;;7.30;99.90;;;;;;5057527;28;20507;-68
2022/12/21 03:04:21;;;;;;;46.17;12.45;;;7.60;99.90;;;;;;5057057;28;20049;-69
2022/12/21 03:06:53;;;;;;;;;;;7.30;99.90;;;;;;5035393;28;20056;-68
2022/12/21 03:09:21;;;;;;;59.80;11.65;;;7.40;99.90;;;;;;5057592;28;20071;-68
2022/12/21 03:11:59;;;;;;;31.17;9.77;;;7.40;99.90;;;;;;5056769;28;20045;-68
2022/12/21 03:14:43;;;;;;;68.65;12.23;;;7.40;99.90;;;;;;5056791;28;20049;-68
2022/12/21 03:17:10;;;;;;;47.17;10.57;;;7.30;99.90;;;;;;5056903;28;20492;-68
2022/12/21 03:20:25;;;;;;;40.45;10.93;;;7.40;99.90;;;;;;5056636;28;20060;-69
2022/12/21 03:23:06;;;;;;;27.05;9.98;;;7.30;99.90;;;;;;5055706;28;20080;-69
2022/12/21 03:25:46;;;;;;;40.15;10.80;;;7.30;99.90;;;;;;5056589;28;20045;-69
2022/12/21 03:28:17;;;;;;;47.00;11.00;;;7.50;99.90;;;;;;5056819;28;20481;-69
2022/12/21 03:30:48;;;;;;;32.50;11.20;;;7.30;99.90;;;;;;5056109;28;20388;-68
2022/12/21 03:33:19;;;;;;;35.67;10.25;;;7.40;99.90;;;;;;5057248;28;20055;-69
2022/12/21 03:36:20;;;;;;;38.28;10.50;;;7.70;99.90;;;;;;5056897;28;20132;-68
2022/12/21 03:39:03;;;;;;;53.03;11.32;;;7.50;99.90;;;;;;5023630;28;20068;-68
2022/12/21 03:41:36;;;;;;;55.17;11.68;;;7.30;99.90;;;;;;5056813;28;20060;-68
2022/12/21 03:44:05;;;;;;;52.65;12.00;;;7.50;99.90;;;;;;5056524;28;20436;-69
2022/12/21 03:46:35;;;;;;;42.75;11.40;;;7.40;99.90;;;;;;5055761;28;20558;-68
2022/12/21 03:49:09;;;;;;;44.30;12.50;;;7.40;99.90;;;;;;5056928;28;20053;-68
2022/12/21 03:52:01;;;;;;;;;;;7.20;99.90;;;;;;5057113;28;20132;-68
2022/12/21 03:54:53;;;;;;;36.70;10.52;;;7.30;99.90;;;;;;5054418;28;19920;-68
2022/12/21 03:57:20;;;;;;;42.92;11.95;;;7.30;99.90;;;;;;5054394;28;20049;-69
2022/12/21 03:59:51;;;;;;;58.22;13.02;;;7.30;99.90;;;;;;5055896;28;20142;-68
2022/12/21 04:02:28;;;;;;;36.33;10.77;;;7.40;99.90;;;;;;5055930;28;20053;-68
2022/12/21 04:05:00;;;;;;;61.85;10.63;;;7.40;99.90;;;;;;5054663;28;20044;-69
2022/12/21 04:07:27;;;;;;;67.05;11.90;;;7.30;99.90;;;;;;5054425;28;20052;-68
2022/12/21 04:10:14;;;;;;;44.58;9.13;;;7.50;99.90;;;;;;5055704;28;20091;-68
2022/12/21 04:12:40;;;;;;;32.65;8.00;;;7.40;99.90;;;;;;5055722;28;20128;-68
2022/12/21 04:15:10;;;;;;;30.77;7.35;;;7.40;99.90;;;;;;5055222;28;20119;-69
2022/12/21 04:17:36;;;;;;;52.13;9.90;;;7.40;99.90;;;;;;5055815;28;20033;-68
2022/12/21 04:20:04;;;;;;;30.38;7.90;;;7.30;99.90;;;;;;5055475;28;20127;-68
2022/12/21 04:28:07;;;;;;;22.20;6.43;;;7.50;99.90;;;;;;5055407;28;20480;-69
2022/12/21 04:30:37;;;;;;;24.17;7.45;;;7.20;99.90;;;;;;5055799;28;20469;-69
2022/12/21 04:33:04;;;;;;;37.88;8.50;;;7.30;99.90;;;;;;5055365;28;20162;-68
2022/12/21 04:35:30;;;;;;;40.58;8.93;;;7.30;99.90;;;;;;5056019;28;20052;-69
2022/12/21 04:37:56;;;;;;;40.45;8.68;;;7.30;99.90;;;;;;5055063;28;20047;-69
2022/12/21 04:40:21;;;;;;;81.68;11.63;;;7.40;99.90;;;;;;5055066;28;20044;-69
2022/12/21 04:42:47;;;;;;;107.22;13.65;;;7.40;99.90;;;;;;5055047;28;20052;-69
2022/12/21 04:45:13;;;;;;;66.78;11.52;;;7.30;99.90;;;;;;5055330;28;20124;-69
2022/12/21 04:47:38;;;;;;;46.25;9.07;;;7.30;99.90;;;;;;5054669;28;20041;-69
2022/12/21 04:50:05;;;;;;;37.33;9.27;;;7.60;99.90;;;;;;5037195;28;20135;-69
2022/12/21 04:52:31;;;;;;;26.63;7.60;;;7.20;99.90;;;;;;5055309;28;20385;-69
2022/12/21 04:54:57;;;;;;;28.55;7.57;;;7.40;99.90;;;;;;5054808;28;20041;-69
2022/12/21 04:57:24;;;;;;;48.72;9.88;;;7.20;99.90;;;;;;5053562;28;20098;-68
2022/12/21 04:59:49;;;;;;;34.05;8.30;;;7.50;99.90;;;;;;5053518;28;20048;-69
2022/12/21 05:02:15;;;;;;;37.40;8.05;;;7.30;99.90;;;;;;5054514;28;20094;-68
2022/12/21 05:04:41;;;;;;;57.58;9.80;;;7.30;99.90;;;;;;5054648;28;20055;-69
2022/12/21 05:07:07;;;;;;;55.88;9.65;;;7.20;99.90;;;;;;5053980;28;20453;-69
2022/12/21 05:09:33;;;;;;;62.95;9.88;;;7.40;99.90;;;;;;5036984;28;20365;-69
2022/12/21 05:11:59;;;;;;;49.13;9.23;;;7.00;99.90;;;;;;5053356;28;20102;-68
2022/12/21 05:14:25;;;;;;;61.58;10.65;;;7.10;99.90;;;;;;5054700;28;20392;-69
2022/12/21 05:16:51;;;;;;;33.90;7.82;;;7.10;99.90;;;;;;5054327;28;20048;-69
2022/12/21 05:19:17;;;;;;;72.45;11.65;;;7.10;99.90;;;;;;5053962;28;20049;-69
2022/12/21 05:21:43;;;;;;;29.17;7.10;;;7.20;99.90;;;;;;5054770;28;20048;-69
2022/12/21 05:24:09;;;;;;;69.53;9.57;;;7.40;99.90;;;;;;5054355;28;20059;-69
2022/12/21 05:26:35;;;;;;;58.30;9.95;;;7.00;99.90;;;;;;5053919;28;20048;-69
2022/12/21 05:29:01;;;;;;;58.28;9.60;;;7.10;99.90;;;;;;5055018;28;20119;-69
2022/12/21 05:31:26;;;;;;;35.92;7.40;;;7.10;99.90;;;;;;5054188;28;20045;-68
2022/12/21 05:33:52;;;;;;;50.55;8.75;;;7.20;99.90;;;;;;5054637;28;20505;-69
2022/12/21 05:36:18;;;;;;;30.92;7.53;;;7.10;99.90;;;;;;5054030;28;20399;-69
2022/12/21 05:38:44;;;;;;;33.47;7.75;;;7.40;99.90;;;;;;5054010;28;20052;-70
2022/12/21 05:41:12;;;;;;;33.47;7.88;;;7.30;99.90;;;;;;5053985;28;20124;-70
2022/12/21 05:43:39;;;;;;;38.03;7.78;;;7.30;99.90;;;;;;5052760;28;20420;-70
2022/12/21 05:46:07;;;;;;;48.22;8.15;;;7.20;99.90;;;;;;5053926;28;20048;-70
2022/12/21 05:48:33;;;;;;;42.00;8.25;;;7.10;99.90;;;;;;5054655;28;20087;-69
2022/12/21 05:50:59;;;;;;;30.83;7.35;;;7.10;99.90;;;;;;5052722;28;20060;-69
2022/12/21 05:53:25;;;;;;;47.85;8.40;;;7.10;99.90;;;;;;5069223;28;20485;-69
2022/12/21 05:55:51;;;;;;;41.83;7.95;;;7.10;99.90;;;;;;5052733;28;20053;-69
2022/12/21 05:58:19;;;;;;;63.28;9.48;;;7.00;99.90;;;;;;5053593;28;20413;-69
2022/12/21 06:00:44;;;;;;;55.70;10.52;;;7.30;99.90;;;;;;5054224;28;20127;-69
2022/12/21 06:03:10;;;;;;;71.15;9.05;;;7.10;99.90;;;;;;5052493;28;20182;-69
2022/12/21 06:05:36;;;;;;;42.05;9.35;;;7.10;99.90;;;;;;5052478;28;20048;-70
2022/12/21 06:08:03;;;;;;;40.13;9.52;;;7.40;99.90;;;;;;5052370;28;20045;-69
2022/12/21 06:10:29;;;;;;;33.90;7.53;;;7.00;99.90;;;;;;5053578;28;20048;-69
2022/12/21 06:12:54;;;;;;;42.70;8.50;;;7.30;99.90;;;;;;5054059;28;20041;-69
2022/12/21 06:15:20;;;;;;;35.92;8.45;;;7.30;99.90;;;;;;5053792;28;20053;-68
2022/12/21 06:17:45;;;;;;;36.25;8.60;;;7.00;99.90;;;;;;5053660;28;20041;-69
2022/12/21 06:20:12;;;;;;;26.45;8.48;;;7.20;99.90;;;;;;5053055;28;20094;-69
2022/12/21 06:22:40;;;;;;;30.05;7.43;;;7.10;99.90;;;;;;5054114;28;20106;-68
2022/12/21 06:25:07;;;;;;;40.65;9.68;;;7.20;99.90;;;;;;5035821;28;20045;-69
2022/12/21 06:27:32;;;;;;;31.90;8.43;;;7.00;99.90;;;;;;5052188;28;20041;-69
2022/12/21 06:29:58;;;;;;;46.13;10.77;;;7.10;99.90;;;;;;5051960;28;20124;-69
2022/12/21 06:32:24;;;;;;;58.35;10.63;;;7.10;99.90;;;;;;5040191;28;20414;-70
2022/12/21 06:34:50;;;;;;;50.83;10.65;;;7.50;99.90;;;;;;5057999;28;20051;-70
2022/12/21 06:37:15;;;;;;;33.65;9.27;;;7.20;99.90;;;;;;5057373;28;20477;-70
2022/12/21 06:39:41;;;;;;;47.97;10.18;;;7.20;99.90;;;;;;5057405;28;20049;-69
2022/12/21 06:42:07;;;;;;;93.72;14.90;;;7.20;99.90;;;;;;5057110;28;20546;-70
2022/12/21 06:44:33;;;;;;;71.80;11.75;;;7.10;99.90;;;;;;5057136;28;20067;-69
2022/12/21 06:46:59;;;;;;;54.47;10.95;;;7.10;99.90;;;;;;5057796;28;20033;-70
2022/12/21 06:49:24;;;;;;;49.90;11.10;;;7.50;99.90;;;;;;5057091;28;20123;-69
2022/12/21 06:51:50;;;;;;;40.47;10.30;;;7.20;99.90;;;;;;5056496;28;20057;-70
2022/12/21 06:54:16;;;;;;;38.72;9.80;;;7.40;99.90;;;;;;5055848;28;20120;-69
2022/12/21 06:56:42;;;;;;;24.05;8.88;;;7.30;99.90;;;;;;5057832;28;20045;-69
2022/12/21 06:59:07;;;;;;;36.40;10.65;;;7.30;99.90;;;;;;5056327;28;20045;-69
2022/12/21 07:01:34;;;;;;;40.15;10.88;;;7.30;99.90;;;;;;5056348;28;20465;-69
2022/12/21 07:04:00;;;;;;;47.17;11.15;;;7.00;99.90;;;;;;5056649;28;20482;-69
2022/12/21 07:06:27;;;;;;;47.22;12.20;;;7.20;99.90;;;;;;5057720;28;20095;-69
2022/12/21 07:08:54;;;;;;;54.78;12.80;;;7.30;99.90;;;;;;5056870;28;20041;-69
2022/12/21 07:11:22;;;;;;;36.63;11.57;;;7.40;99.90;;;;;;5056819;28;20049;-69
2022/12/21 07:13:49;;;;;;;47.25;12.20;;;7.10;99.90;;;;;;5056764;28;20052;-69
2022/12/21 07:16:16;;;;;;;47.97;12.50;;;7.50;99.90;;;;;;5056663;28;20037;-68
2022/12/21 07:18:42;;;;;;;63.38;13.60;;;7.30;99.90;;;;;;5056661;28;20045;-68
2022/12/21 07:21:11;;;;;;;64.03;13.27;;;7.40;99.90;;;;;;5055893;28;20049;-69
2022/12/21 07:23:39;;;;;;;45.58;13.73;;;7.20;99.90;;;;;;5055797;28;20049;-69
2022/12/21 07:26:06;;;;;;;83.28;16.48;;;7.30;99.90;;;;;;5057093;28;20045;-69
2022/12/21 07:28:32;;;;;;;67.20;15.68;;;7.20;99.90;;;;;;5056483;28;20127;-70
2022/12/21 07:31:05;;;;;;;51.33;13.35;;;7.20;99.90;;;;;;5057260;28;20132;-69
2022/12/21 07:33:32;;;;;;;47.55;14.05;;;7.30;99.90;;;;;;5057222;28;20068;-69
2022/12/21 07:35:59;;;;;;;50.50;16.08;;;7.10;99.90;;;;;;5038759;28;20060;-69
2022/12/21 07:38:27;;;;;;;45.63;12.93;;;7.30;99.90;;;;;;5055194;28;20059;-68
2022/12/21 07:40:56;;;;;;;56.03;15.65;;;7.40;99.90;;;;;;5055988;28;20100;-68
2022/12/21 07:43:22;;;;;;;50.75;14.77;;;7.50;99.90;;;;;;5056295;28;20041;-69
2022/12/21 07:45:47;;;;;;;45.70;14.77;;;7.10;99.90;;;;;;5056480;28;20049;-69
2022/12/21 07:48:13;;;;;;;53.97;16.05;;;7.20;99.90;;;;;;5056656;28;20484;-69
2022/12/21 07:50:39;;;;;;;43.97;13.90;;;7.40;99.90;;;;;;5054703;28;20135;-69
2022/12/21 07:53:04;;;;;;;55.15;17.08;;;7.10;99.90;;;;;;5056512;28;20049;-68
2022/12/21 07:55:31;;;;;;;46.17;15.18;;;7.20;99.90;;;;;;5055975;28;20396;-69
2022/12/21 07:57:57;;;;;;;49.13;17.35;;;7.20;99.90;;;;;;5055850;28;20133;-69
2022/12/21 08:00:23;;;;;;;50.85;15.70;;;7.20;99.90;;;;;;5055925;28;20077;-69
2022/12/21 08:02:50;;;;;;;42.75;14.30;;;7.10;99.90;;;;;;5055783;28;20056;-69
2022/12/21 08:05:17;;;;;;;43.42;14.45;;;7.40;99.90;;;;;;5055791;28;20045;-69
2022/12/21 08:07:43;;;;;;;50.30;15.23;;;7.20;99.90;;;;;;5055755;28;20048;-69
2022/12/21 08:10:09;;;;;;;50.97;17.20;;;7.20;99.90;;;;;;5055124;28;20052;-69
2022/12/21 08:12:35;;;;;;;54.55;17.05;;;7.20;99.90;;;;;;5055655;28;20037;-69
2022/12/21 08:15:00;;;;;;;49.47;16.50;;;7.40;99.90;;;;;;5055609;28;20041;-69
2022/12/21 08:17:26;;;;;;;57.70;16.90;;;7.50;99.90;;;;;;5055506;28;20473;-69
2022/12/21 08:19:52;;;;;;;67.20;18.20;;;7.30;99.90;;;;;;5054862;28;20072;-70
2022/12/21 08:22:18;;;;;;;64.45;18.67;;;7.50;99.90;;;;;;5055447;28;20120;-69
2022/12/21 08:24:43;;;;;;;64.28;18.15;;;7.20;99.90;;;;;;5055501;28;20124;-69
2022/12/21 08:27:10;;;;;;;57.85;17.95;;;7.30;99.90;;;;;;5055370;28;20044;-69
2022/12/21 08:29:36;;;;;;;55.63;17.17;;;7.30;99.90;;;;;;5055632;28;20125;-69
2022/12/21 08:32:03;;;;;;;64.43;18.90;;;7.20;99.90;;;;;;5055290;28;20045;-69
2022/12/21 08:34:29;;;;;;;50.80;17.80;;;7.40;99.90;;;;;;5055263;28;20049;-70
2022/12/21 08:36:55;;;;;;;43.80;16.40;;;7.50;99.90;;;;;;5055179;28;20041;-70
2022/12/21 08:39:21;;;;;;;63.35;19.55;;;7.40;99.90;;;;;;5054573;28;20397;-69
2022/12/21 08:41:47;;;;;;;68.43;20.38;;;7.50;99.90;;;;;;5055547;28;20045;-70
2022/12/21 08:44:13;;;;;;;48.83;17.20;;;7.50;99.90;;;;;;5055272;28;20068;-69
2022/12/21 08:46:38;;;;;;;53.25;18.10;;;7.60;99.90;;;;;;5055117;28;20477;-70
2022/12/21 08:49:04;;;;;;;57.97;18.80;;;7.50;99.90;;;;;;5053657;28;20049;-69
2022/12/21 08:51:30;;;;;;;56.45;19.40;;;7.40;99.90;;;;;;5054883;28;20111;-70
2022/12/21 08:53:56;;;;;;;54.53;19.25;;;7.30;99.90;;;;;;5054156;28;20107;-69
2022/12/21 08:56:23;;;;;;;59.72;18.70;;;7.40;99.90;;;;;;5053862;28;20053;-68
2022/12/21 08:58:49;;;;;;;51.40;18.33;;;7.40;99.90;;;;;;5054890;28;20049;-68
2022/12/21 09:01:19;;;;;;;52.25;18.85;;;7.30;99.90;;;;;;5054903;28;20049;-68
2022/12/21 09:03:45;;;;;;;51.38;17.30;;;7.40;99.90;;;;;;5054901;28;20048;-68
2022/12/21 09:06:11;;;;;;;48.03;16.50;;;7.50;99.90;;;;;;5054830;28;20137;-68
2022/12/21 09:08:37;;;;;;;44.10;15.25;;;7.70;99.90;;;;;;5053481;28;20147;-68
2022/12/21 09:11:05;;;;;;;54.80;16.73;;;7.40;99.90;;;;;;5053434;28;20136;-67
2022/12/21 09:13:31;;;;;;;36.72;13.80;;;7.40;99.90;;;;;;5054662;28;20124;-70
2022/12/21 09:15:57;;;;;;;45.00;16.10;;;7.40;99.90;;;;;;5053369;28;20513;-70
2022/12/21 09:18:23;;;;;;;36.85;14.30;;;7.60;99.90;;;;;;5055337;28;20045;-69
2022/12/21 09:20:48;;;;;;;40.30;13.68;;;7.40;99.90;;;;;;5054471;28;20045;-69
2022/12/21 09:23:14;;;;;;;41.10;14.18;;;7.50;99.90;;;;;;5054421;28;20053;-70
2022/12/21 09:25:40;;;;;;;37.35;14.00;;;7.50;99.90;;;;;;5054675;28;20041;-70
2022/12/21 09:28:06;;;;;;;35.85;13.43;;;7.60;99.90;;;;;;5054360;28;20128;-69
2022/12/21 09:30:32;;;;;;;37.85;13.57;;;7.80;99.90;;;;;;5055167;28;20139;-69
2022/12/21 09:32:58;;;;;;;39.15;15.07;;;7.50;99.90;;;;;;5053354;28;20041;-69
2022/12/21 09:35:24;;;;;;;49.00;16.45;;;7.50;99.90;;;;;;5052850;28;20072;-69
2022/12/21 09:37:50;;;;;;;47.47;15.70;;;7.60;99.90;;;;;;5036050;28;20098;-70
2022/12/21 09:40:18;;;;;;;40.03;14.80;;;7.40;99.90;;;;;;5054163;28;20044;-70
2022/12/21 09:43:30;;;;;;;38.72;14.80;;;7.60;99.90;;;;;;5054090;28;20041;-70
2022/12/21 09:46:11;;;;;;;38.05;13.68;;;7.70;99.90;;;;;;5030980;28;20080;-71
2022/12/21 09:49:03;;;;;;;40.53;14.13;;;7.60;99.90;;;;;;5054623;28;20488;-69
2022/12/21 09:51:32;;;;;;;47.85;14.88;;;7.60;99.90;;;;;;5052867;28;20060;-69
2022/12/21 09:54:13;;;;;;;41.22;15.10;;;7.70;99.90;;;;;;5053667;28;20056;-69
2022/12/21 09:56:42;;;;;;;41.67;15.55;;;7.80;99.90;;;;;;5053083;28;20052;-70
2022/12/21 09:59:14;;;;;;;39.33;15.00;;;7.70;99.90;;;;;;5053813;28;20118;-69
2022/12/21 10:01:52;;;;;;;35.90;14.13;;;7.80;99.90;;;;;;5053770;28;20045;-70
2022/12/21 10:04:38;;;;;;;39.88;15.35;;;7.80;99.90;;;;;;5053788;28;20045;-70
2022/12/21 10:07:32;;;;;;;45.47;15.52;;;7.80;99.90;;;;;;5053115;28;20056;-69
2022/12/21 10:10:23;;;;;;;42.03;14.60;;;8.10;99.90;;;;;;5053745;28;20045;-69
2022/12/21 10:12:58;;;;;;;42.78;15.48;;;7.90;99.90;;;;;;5053104;28;20052;-69
2022/12/21 10:15:41;;;;;;;36.83;15.10;;;7.70;99.90;;;;;;5053986;28;20067;-69
2022/12/21 10:18:35;;;;;;;36.22;13.52;;;7.90;99.90;;;;;;5053525;28;20033;-69
2022/12/21 10:21:19;;;;;;;34.67;14.15;;;8.10;99.90;;;;;;5038526;28;20057;-69
2022/12/21 10:23:49;;;;;;;37.22;14.60;;;7.90;99.90;;;;;;5053546;28;20129;-69
2022/12/21 10:26:18;;;;;;;45.50;17.02;;;8.00;99.90;;;;;;5054640;28;20037;-69
2022/12/21 10:29:14;;;;;;;45.15;16.33;;;7.70;99.90;;;;;;5053476;28;20049;-69
2022/12/21 10:31:44;;;;;;;37.50;15.35;;;7.90;99.90;;;;;;5054410;28;20045;-68
2022/12/21 10:34:15;;;;;;;41.33;15.63;;;7.90;99.90;;;;;;5054260;28;20164;-68
2022/12/21 10:36:42;;;;;;;45.58;16.35;;;7.90;99.90;;;;;;5053387;28;20053;-68
2022/12/21 10:39:13;;;;;;;35.88;15.63;;;7.90;99.90;;;;;;5053297;28;20056;-67
2022/12/21 10:41:42;;;;;;;42.28;15.50;;;8.00;99.90;;;;;;5053422;28;20500;-68
2022/12/21 10:44:10;;;;;;;43.00;16.85;;;8.20;99.90;;;;;;5052434;28;20492;-68
2022/12/21 10:46:37;;;;;;;38.72;16.25;;;7.80;99.90;;;;;;5053418;28;20068;-68
2022/12/21 10:49:31;;;;;;;42.75;17.10;;;7.90;99.90;;;;;;5053322;28;20048;-68
2022/12/21 10:51:57;;;;;;;41.58;16.95;;;8.00;99.90;;;;;;5052288;28;20088;-68
2022/12/21 10:54:28;;;;;;;40.45;17.80;;;7.80;99.90;;;;;;5053289;28;20053;-67
2022/12/21 10:56:58;;;;;;;43.72;17.25;;;8.10;99.90;;;;;;5053284;28;20045;-70
2022/12/21 10:59:29;;;;;;;39.30;18.63;;;8.10;99.90;;;;;;5052792;28;20127;-69
2022/12/21 11:01:55;;;;;;;36.55;16.98;;;8.00;99.90;;;;;;5052406;28;20077;-70
2022/12/21 11:04:26;;;;;;;38.45;16.98;;;8.20;99.90;;;;;;5053234;28;20056;-69
2022/12/21 11:07:21;;;;;;;42.60;17.42;;;8.10;99.90;;;;;;5052197;28;20485;-69
2022/12/21 11:09:59;;;;;;;40.78;18.52;;;8.10;99.90;;;;;;5053258;28;20128;-69
2022/12/21 11:12:27;;;;;;;38.33;17.50;;;8.00;99.90;;;;;;5052474;28;20047;-71
2022/12/21 11:14:54;;;;;;;39.70;17.63;;;8.20;99.90;;;;;;5053415;28;20098;-71
2022/12/21 11:17:23;;;;;;;36.70;16.15;;;8.10;99.90;;;;;;5055306;28;20048;-69
2022/12/21 11:20:08;;;;;;;35.60;15.90;;;8.10;99.90;;;;;;5057390;28;20044;-81
2022/12/21 11:22:39;;;;;;;30.95;14.32;;;8.10;99.90;;;;;;5056787;28;20051;-68
2022/12/21 11:25:12;;;;;;;37.20;15.10;;;8.00;99.90;;;;;;5056766;28;20056;-66
2022/12/21 11:27:38;;;;;;;;;;;7.80;99.90;;;;;;5057487;28;20056;-68
2022/12/21 11:30:26;;;;;;;42.88;17.40;;;7.90;99.90;;;;;;5056663;28;20246;-70
2022/12/21 11:32:54;;;;;;;33.72;15.50;;;8.00;99.90;;;;;;5056573;28;20472;-70
2022/12/21 11:35:26;;;;;;;34.78;15.27;;;8.00;99.90;;;;;;5056503;28;20052;-68
2022/12/21 11:37:54;;;;;;;34.05;15.63;;;8.00;99.90;;;;;;5056373;28;20044;-69
2022/12/21 11:40:26;;;;;;;32.50;14.48;;;7.90;99.90;;;;;;5056388;28;20041;-69
2022/12/21 11:43:02;;;;;;;29.20;13.85;;;7.90;99.90;;;;;;5056472;28;20044;-69
2022/12/21 11:45:46;;;;;;;34.75;13.55;;;7.90;99.90;;;;;;5056853;28;20036;-67
2022/12/21 11:48:25;;;;;;;34.75;12.85;;;7.80;99.90;;;;;;5057114;28;20055;-70
2022/12/21 11:50:50;;;;;;;31.23;12.48;;;8.10;99.90;;;;;;5056183;28;20057;-70
2022/12/21 11:53:35;;;;;;;31.75;13.90;;;8.10;99.90;;;;;;5056047;28;20053;-70
2022/12/21 11:56:25;;;;;;;29.52;12.88;;;7.80;99.90;;;;;;5054758;28;20127;-70
2022/12/21 11:59:28;;;;;;;31.27;12.35;;;8.00;99.90;;;;;;5054861;28;20041;-71
2022/12/21 12:02:03;;;;;;;30.40;11.90;;;8.10;99.90;;;;;;5056561;28;20049;-71
2022/12/21 12:04:36;;;;;;;25.60;11.13;;;8.00;99.90;;;;;;5056016;28;20055;-71
2022/12/21 12:07:13;;;;;;;31.13;11.90;;;8.00;99.90;;;;;;5056531;28;20044;-70
2022/12/21 12:09:59;;;;;;;29.08;11.05;;;8.20;99.90;;;;;;5056213;28;20409;-70
2022/12/21 12:12:41;;;;;;;25.75;11.02;;;8.20;99.90;;;;;;5055217;28;20393;-70
2022/12/21 12:15:22;;;;;;;32.55;12.43;;;8.10;99.90;;;;;;5055533;28;20493;-70
2022/12/21 12:17:50;;;;;;;29.70;12.85;;;8.00;99.90;;;;;;5054800;28;20394;-69
2022/12/21 12:20:34;;;;;;;28.63;11.07;;;8.10;99.90;;;;;;5055700;28;20041;-71
2022/12/21 12:23:12;;;;;;;27.05;12.27;;;8.10;99.90;;;;;;5056191;28;20060;-70
2022/12/21 12:25:38;;;;;;;30.08;13.15;;;8.00;99.90;;;;;;5055538;28;20047;-69
2022/12/21 12:28:28;;;;;;;26.73;12.50;;;8.10;99.90;;;;;;5053218;28;20045;-69
2022/12/21 12:31:13;;;;;;;30.00;12.60;;;8.20;99.90;;;;;;5055616;28;20098;-70
2022/12/21 12:34:07;;;;;;;31.33;13.18;;;8.20;99.90;;;;;;5055434;28;20103;-70
2022/12/21 12:36:41;;;;;;;28.20;12.02;;;8.20;99.90;;;;;;5038598;28;20048;-70
2022/12/21 12:39:14;;;;;;;31.63;13.63;;;8.00;99.90;;;;;;5055591;28;20401;-70
2022/12/21 12:42:06;;;;;;;31.90;12.48;;;8.10;99.90;;;;;;5055657;28;20392;-70
2022/12/21 12:44:51;;;;;;;30.23;12.25;;;8.20;99.90;;;;;;5055360;28;20048;-70
2022/12/21 12:47:43;;;;;;;32.55;13.23;;;8.20;99.90;;;;;;5055861;28;20052;-70
2022/12/21 12:50:21;;;;;;;28.52;12.15;;;8.10;99.90;;;;;;5055540;28;20065;-69
2022/12/21 12:53:15;;;;;;;30.73;12.45;;;8.20;99.90;;;;;;5055072;28;20053;-69
2022/12/21 12:55:57;;;;;;;31.02;13.00;;;8.30;99.90;;;;;;5054800;28;20476;-70
2022/12/21 12:58:55;;;;;;;33.00;12.60;;;8.30;99.90;;;;;;5055859;28;20171;-70
2022/12/21 13:01:56;;;;;;;31.05;12.93;;;8.20;99.90;;;;;;5055006;28;20088;-70
2022/12/21 13:04:33;;;;;;;36.05;13.40;;;8.30;99.90;;;;;;5054781;28;20056;-70
2022/12/21 13:07:20;;;;;;;33.17;13.18;;;8.50;99.90;;;;;;5054708;28;20045;-70
2022/12/21 13:09:53;;;;;;;31.05;13.40;;;8.40;99.90;;;;;;5054549;28;20053;-71